Time;durP1;ratioP1;P1;durP2;ratioP2;P2;SDS_P1;SDS_P2;PMS_P1;PMS_P2;Temp;Humidity;BMP_temperature;BMP_pressure;BME280_temperature;BME280_humidity;BME280_pressure;Samples;Min_cycle;Max_cycle;Signal;HPM_P1;HPM_P2
2023/08/11 00:01:47;;;;;;;4.50;3.42;;;16.80;99.90;;;;;;5020881;28;20041;-83
2023/08/11 00:04:14;;;;;;;5.13;3.25;;;16.70;99.90;;;;;;5025700;28;20029;-84
2023/08/11 00:06:40;;;;;;;4.80;3.55;;;16.50;99.90;;;;;;5022860;28;20457;-84
2023/08/11 00:09:08;;;;;;;5.45;3.88;;;16.50;99.90;;;;;;5019272;28;20040;-84
2023/08/11 00:11:34;;;;;;;8.05;3.90;;;16.30;99.90;;;;;;5028797;28;20041;-84
2023/08/11 00:14:00;;;;;;;9.63;4.30;;;16.20;99.90;;;;;;5025610;28;20091;-84
2023/08/11 00:16:25;;;;;;;6.60;4.30;;;16.20;99.90;;;;;;5008655;28;20033;-84
2023/08/11 00:18:51;;;;;;;4.97;4.35;;;16.10;99.90;;;;;;5009105;28;20288;-84
2023/08/11 00:21:17;;;;;;;5.68;4.47;;;16.00;99.90;;;;;;5011047;28;20080;-84
2023/08/11 00:23:43;;;;;;;4.88;4.38;;;16.00;99.90;;;;;;5016871;28;20960;-83
2023/08/11 00:26:10;;;;;;;6.60;4.32;;;15.90;99.90;;;;;;5008096;28;20158;-83
2023/08/11 00:28:36;;;;;;;6.45;4.30;;;15.80;99.90;;;;;;5042713;28;20037;-84
2023/08/11 00:31:02;;;;;;;5.10;4.40;;;15.80;99.90;;;;;;5005803;28;20132;-83
2023/08/11 00:33:28;;;;;;;6.18;4.30;;;15.70;99.90;;;;;;5011595;28;20579;-84
2023/08/11 00:35:53;;;;;;;6.30;4.82;;;15.70;99.90;;;;;;5042883;28;20052;-84
2023/08/11 00:38:22;;;;;;;6.28;4.38;;;15.60;99.90;;;;;;5006816;28;20140;-83
2023/08/11 00:40:48;;;;;;;6.40;4.85;;;15.60;99.90;;;;;;5022484;28;20522;-84
2023/08/11 00:43:13;;;;;;;6.43;4.70;;;15.50;99.90;;;;;;5022232;28;20112;-84
2023/08/11 00:45:45;;;;;;;6.40;4.85;;;15.50;99.90;;;;;;5024528;28;20151;-84
2023/08/11 00:48:11;;;;;;;5.10;4.18;;;15.40;99.90;;;;;;5027713;28;20049;-84
2023/08/11 00:50:37;;;;;;;6.20;5.00;;;15.40;99.90;;;;;;5022613;28;20041;-84
2023/08/11 00:53:03;;;;;;;6.55;5.43;;;15.40;99.90;;;;;;5024051;28;20107;-84
2023/08/11 00:55:29;;;;;;;5.80;5.05;;;15.40;99.90;;;;;;5041239;28;20069;-84
2023/08/11 00:57:54;;;;;;;7.15;5.97;;;15.30;99.90;;;;;;5023991;28;20084;-84
2023/08/11 01:00:21;;;;;;;6.72;5.78;;;15.30;99.90;;;;;;5027061;28;20041;-84
2023/08/11 01:02:46;;;;;;;8.20;5.88;;;15.30;99.90;;;;;;5026661;28;20029;-83
2023/08/11 01:05:15;;;;;;;6.82;5.85;;;15.30;99.90;;;;;;5010808;28;20082;-84
2023/08/11 01:07:47;;;;;;;8.93;5.85;;;15.20;99.90;;;;;;5017123;28;20044;-84
2023/08/11 01:10:27;;;;;;;7.30;5.82;;;15.20;99.90;;;;;;5027109;28;20033;-84
2023/08/11 01:13:17;;;;;;;9.70;6.35;;;15.20;99.90;;;;;;5004520;28;20033;-84
2023/08/11 01:15:51;;;;;;;8.38;6.63;;;15.20;99.90;;;;;;5005096;28;20153;-84
2023/08/11 01:18:19;;;;;;;10.63;6.75;;;15.10;99.90;;;;;;5019419;28;20512;-84
2023/08/11 01:20:48;;;;;;;8.80;7.07;;;15.10;99.90;;;;;;5010150;28;20103;-84
2023/08/11 01:23:21;;;;;;;8.52;7.20;;;15.10;99.90;;;;;;5004845;28;20060;-83
2023/08/11 01:25:48;;;;;;;9.55;7.75;;;15.00;99.90;;;;;;5021686;28;20046;-84
2023/08/11 01:28:14;;;;;;;10.38;7.90;;;15.00;99.90;;;;;;5023664;28;20064;-84
2023/08/11 01:30:42;;;;;;;12.88;9.15;;;15.10;99.90;;;;;;5024120;28;20033;-84
2023/08/11 01:33:08;;;;;;;14.65;10.20;;;15.00;99.90;;;;;;5025166;28;20405;-84
2023/08/11 01:35:33;;;;;;;11.95;9.73;;;15.00;99.90;;;;;;5022248;28;20381;-84
2023/08/11 01:37:59;;;;;;;11.02;9.85;;;15.00;99.90;;;;;;5020613;28;20041;-84
2023/08/11 01:40:26;;;;;;;12.13;9.73;;;15.00;99.90;;;;;;5025658;28;20045;-84
2023/08/11 01:42:54;;;;;;;12.90;9.75;;;14.90;99.90;;;;;;5022603;28;20037;-84
2023/08/11 01:45:21;;;;;;;13.25;9.75;;;14.90;99.90;;;;;;5007256;28;20049;-84
2023/08/11 01:47:50;;;;;;;15.45;10.35;;;15.00;99.90;;;;;;5022746;28;20041;-84
2023/08/11 01:50:18;;;;;;;16.25;9.80;;;15.00;99.90;;;;;;5020847;28;20111;-84
2023/08/11 01:52:46;;;;;;;13.18;10.52;;;15.00;99.90;;;;;;5017736;28;20400;-84
2023/08/11 01:55:13;;;;;;;13.32;10.52;;;15.00;99.90;;;;;;5016868;28;20046;-84
2023/08/11 01:57:42;;;;;;;14.57;10.93;;;14.90;99.90;;;;;;5023998;28;20052;-84
2023/08/11 02:00:13;;;;;;;14.68;10.75;;;14.90;99.90;;;;;;5033020;28;20042;-84
2023/08/11 02:02:49;;;;;;;13.90;11.13;;;14.90;99.90;;;;;;5001287;28;20045;-84
2023/08/11 02:05:17;;;;;;;14.43;11.35;;;14.90;99.90;;;;;;5005638;28;20033;-84
2023/08/11 02:07:44;;;;;;;14.05;11.10;;;14.90;99.90;;;;;;5021777;28;20146;-84
2023/08/11 02:10:11;;;;;;;14.85;11.00;;;14.90;99.90;;;;;;5039800;28;20056;-84
2023/08/11 02:12:38;;;;;;;13.52;10.77;;;14.90;99.90;;;;;;5011599;28;20044;-84
2023/08/11 02:15:05;;;;;;;17.25;12.88;;;14.90;99.90;;;;;;5009532;28;20060;-84
2023/08/11 02:17:31;;;;;;;16.27;12.88;;;14.90;99.90;;;;;;5040402;28;20045;-84
2023/08/11 02:19:58;;;;;;;14.20;11.80;;;14.90;99.90;;;;;;5020517;28;20315;-84
2023/08/11 02:22:24;;;;;;;18.42;12.45;;;14.90;99.90;;;;;;5000009;28;20120;-84
2023/08/11 02:24:50;;;;;;;14.98;12.68;;;14.80;99.90;;;;;;5055174;28;20037;-83
2023/08/11 02:27:17;;;;;;;16.10;12.70;;;14.80;99.90;;;;;;5027650;28;20578;-84
2023/08/11 02:29:44;;;;;;;15.55;12.85;;;14.80;99.90;;;;;;5007560;28;20049;-84
2023/08/11 02:32:11;;;;;;;15.05;12.38;;;14.80;99.90;;;;;;5027843;28;20053;-84
2023/08/11 02:34:36;;;;;;;16.58;13.13;;;14.80;99.90;;;;;;5005937;28;20315;-85
2023/08/11 02:37:02;;;;;;;17.17;13.18;;;14.70;99.90;;;;;;5022215;28;20054;-85
2023/08/11 02:39:28;;;;;;;17.85;13.50;;;14.80;99.90;;;;;;5021849;28;20037;-84
2023/08/11 02:41:55;;;;;;;18.10;13.93;;;14.80;99.90;;;;;;5024118;28;20044;-85
2023/08/11 02:44:22;;;;;;;17.05;13.90;;;14.70;99.90;;;;;;5024828;28;20655;-84
2023/08/11 02:46:48;;;;;;;17.35;14.15;;;14.70;99.90;;;;;;5023225;28;20061;-84
2023/08/11 02:49:13;;;;;;;17.90;14.45;;;14.70;99.90;;;;;;5026840;28;20048;-84
2023/08/11 02:51:39;;;;;;;15.43;13.30;;;14.70;99.90;;;;;;5027924;28;20057;-85
2023/08/11 02:54:04;;;;;;;18.23;13.52;;;14.70;99.90;;;;;;5008655;28;20397;-85
2023/08/11 02:56:30;;;;;;;18.85;14.48;;;14.70;99.90;;;;;;5025207;28;20045;-85
2023/08/11 02:58:57;;;;;;;21.15;14.25;;;14.70;99.90;;;;;;5024927;28;20044;-84
2023/08/11 03:01:24;;;;;;;17.65;14.57;;;14.60;99.90;;;;;;5010048;28;20559;-85
2023/08/11 03:03:50;;;;;;;16.77;14.55;;;14.60;99.90;;;;;;5034085;28;20045;-84
2023/08/11 03:06:16;;;;;;;18.75;14.52;;;14.60;99.90;;;;;;5003199;28;20045;-85
2023/08/11 03:08:42;;;;;;;18.75;14.30;;;14.60;99.90;;;;;;5009516;28;20068;-84
2023/08/11 03:11:08;;;;;;;20.33;15.00;;;14.60;99.90;;;;;;5033624;28;20179;-84
2023/08/11 03:13:35;;;;;;;18.60;14.65;;;14.60;99.90;;;;;;5021405;28;20045;-85
2023/08/11 03:16:03;;;;;;;19.50;15.00;;;14.50;99.90;;;;;;5011809;28;20054;-84
2023/08/11 03:18:30;;;;;;;17.55;13.23;;;14.60;99.90;;;;;;5010736;28;20081;-84
2023/08/11 03:20:56;;;;;;;19.00;14.23;;;14.50;99.90;;;;;;5009130;28;20060;-85
2023/08/11 03:23:24;;;;;;;17.33;13.13;;;14.60;99.90;;;;;;5008918;28;20046;-85
2023/08/11 03:25:49;;;;;;;18.42;14.27;;;14.50;99.90;;;;;;5024956;28;20120;-85
2023/08/11 03:28:15;;;;;;;17.20;14.15;;;14.60;99.90;;;;;;5025299;28;20128;-84
2023/08/11 03:30:43;;;;;;;15.57;13.20;;;14.60;99.90;;;;;;5026591;28;20037;-85
2023/08/11 03:33:09;;;;;;;19.13;13.07;;;14.50;99.90;;;;;;5042499;28;20047;-85
2023/08/11 03:35:35;;;;;;;17.77;13.85;;;14.60;99.90;;;;;;5023058;28;20065;-85
2023/08/11 03:38:00;;;;;;;16.23;12.93;;;14.60;99.90;;;;;;5024836;28;20477;-85
2023/08/11 03:40:26;;;;;;;16.55;13.40;;;14.60;99.90;;;;;;5010539;28;20041;-85
2023/08/11 03:42:53;;;;;;;17.38;12.90;;;14.60;99.90;;;;;;5008347;28;20042;-85
2023/08/11 03:45:19;;;;;;;16.65;12.50;;;14.60;99.90;;;;;;5009034;28;20140;-85
2023/08/11 03:47:48;;;;;;;18.98;12.13;;;14.60;99.90;;;;;;5007718;28;20453;-84
2023/08/11 03:50:13;;;;;;;17.15;13.57;;;14.60;99.90;;;;;;5025070;28;20045;-85
2023/08/11 03:52:42;;;;;;;20.63;12.85;;;14.60;99.90;;;;;;5022414;28;20424;-85
2023/08/11 03:55:09;;;;;;;15.88;13.15;;;14.50;99.90;;;;;;5053210;28;20037;-84
2023/08/11 03:57:38;;;;;;;18.15;12.57;;;14.50;99.90;;;;;;5023288;28;20037;-85
2023/08/11 04:00:11;;;;;;;16.63;12.80;;;14.50;99.90;;;;;;5041451;28;20818;-85
2023/08/11 04:02:36;;;;;;;16.95;11.80;;;14.50;99.90;;;;;;5025453;28;20033;-86
2023/08/11 04:05:02;;;;;;;14.50;12.52;;;14.50;99.90;;;;;;5007465;28;20056;-85
2023/08/11 04:07:28;;;;;;;16.05;12.45;;;14.50;99.90;;;;;;5018881;28;20037;-85
2023/08/11 04:09:54;;;;;;;17.20;12.68;;;14.50;99.90;;;;;;5019262;28;20041;-85
2023/08/11 04:12:19;;;;;;;17.15;12.30;;;14.60;99.90;;;;;;5027908;28;20036;-85
2023/08/11 04:14:45;;;;;;;14.57;11.68;;;14.50;99.90;;;;;;5018218;28;20064;-85
2023/08/11 04:17:13;;;;;;;16.08;12.10;;;14.50;99.90;;;;;;4998850;28;20080;-85
2023/08/11 04:19:41;;;;;;;15.95;12.32;;;14.50;99.90;;;;;;5003305;28;20037;-85
2023/08/11 04:22:07;;;;;;;17.35;11.77;;;14.50;99.90;;;;;;5019770;28;20030;-85
2023/08/11 04:24:34;;;;;;;16.40;12.00;;;14.60;99.90;;;;;;5004294;28;20120;-85
2023/08/11 04:26:59;;;;;;;16.48;11.88;;;14.50;99.90;;;;;;5006102;28;20139;-85
2023/08/11 04:29:26;;;;;;;16.67;11.82;;;14.60;99.90;;;;;;4998916;28;20054;-85
2023/08/11 04:31:52;;;;;;;14.55;11.65;;;14.60;99.90;;;;;;5020005;28;20103;-85
2023/08/11 04:34:17;;;;;;;14.05;11.40;;;14.60;99.90;;;;;;5003578;28;20481;-85
2023/08/11 04:36:44;;;;;;;13.23;11.07;;;14.60;99.90;;;;;;5019407;28;20037;-85
2023/08/11 04:39:10;;;;;;;13.88;11.52;;;14.70;99.90;;;;;;5019889;28;20394;-85
2023/08/11 04:41:37;;;;;;;16.80;11.13;;;14.70;99.90;;;;;;5029719;28;20159;-85
2023/08/11 04:44:04;;;;;;;12.45;10.85;;;14.70;99.90;;;;;;5002342;28;20089;-85
2023/08/11 04:46:31;;;;;;;14.45;11.80;;;14.70;99.90;;;;;;5043736;28;20485;-85
2023/08/11 04:48:57;;;;;;;14.15;11.00;;;14.80;99.90;;;;;;4983476;28;20200;-85
2023/08/11 04:51:23;;;;;;;16.23;11.45;;;14.80;99.90;;;;;;5024121;28;20183;-85
2023/08/11 04:53:49;;;;;;;14.55;10.80;;;14.90;99.90;;;;;;5018575;28;20124;-86
2023/08/11 04:56:15;;;;;;;14.07;10.13;;;14.90;99.90;;;;;;5003875;28;20316;-86
2023/08/11 04:58:44;;;;;;;12.95;10.02;;;14.90;99.90;;;;;;5005888;28;20037;-85
2023/08/11 05:01:09;;;;;;;13.63;11.00;;;15.00;99.90;;;;;;5004050;28;20045;-86
2023/08/11 05:03:35;;;;;;;15.50;11.13;;;15.10;99.90;;;;;;5031945;28;20061;-86
2023/08/11 05:06:01;;;;;;;15.98;10.93;;;15.20;99.90;;;;;;5052688;28;20114;-85
2023/08/11 05:08:26;;;;;;;13.32;10.15;;;15.20;99.90;;;;;;5018891;28;20042;-86
2023/08/11 05:10:52;;;;;;;14.85;11.20;;;15.30;99.90;;;;;;5021217;28;20045;-84
2023/08/11 05:13:18;;;;;;;14.02;9.32;;;15.40;99.90;;;;;;5027882;28;20048;-84
2023/08/11 05:15:44;;;;;;;14.23;10.30;;;15.50;99.90;;;;;;5030139;28;20041;-84
2023/08/11 05:18:13;;;;;;;14.35;10.85;;;15.60;99.90;;;;;;5005739;28;20131;-84
2023/08/11 05:20:39;;;;;;;13.48;10.40;;;15.60;99.90;;;;;;5024400;28;20045;-84
2023/08/11 05:23:05;;;;;;;12.35;9.57;;;15.70;99.90;;;;;;5024308;28;20030;-84
2023/08/11 05:25:30;;;;;;;12.80;9.52;;;15.70;99.90;;;;;;5023117;28;20266;-84
2023/08/11 05:27:56;;;;;;;12.50;9.63;;;15.80;99.90;;;;;;5026242;28;20041;-84
2023/08/11 05:30:28;;;;;;;12.05;9.40;;;15.90;99.90;;;;;;5025164;28;20265;-84
2023/08/11 05:32:54;;;;;;;11.48;9.35;;;16.00;99.90;;;;;;5025535;28;20041;-84
2023/08/11 05:35:20;;;;;;;15.27;9.40;;;16.00;99.90;;;;;;5022327;28;20052;-83
2023/08/11 05:37:47;;;;;;;11.07;9.57;;;16.20;99.90;;;;;;5042797;28;20390;-84
2023/08/11 05:40:13;;;;;;;14.73;8.60;;;16.20;99.90;;;;;;5023087;28;20053;-84
2023/08/11 05:42:38;;;;;;;11.00;8.60;;;16.30;99.90;;;;;;5030354;28;20033;-83
2023/08/11 05:45:07;;;;;;;10.35;8.43;;;16.40;99.90;;;;;;5020287;28;20053;-83
2023/08/11 05:47:33;;;;;;;9.95;8.10;;;16.40;99.90;;;;;;5055271;28;20060;-84
2023/08/11 05:49:59;;;;;;;10.85;8.23;;;16.50;99.90;;;;;;5024535;28;20037;-84
2023/08/11 05:52:24;;;;;;;9.20;7.70;;;16.70;99.90;;;;;;5008863;28;20034;-84
2023/08/11 05:54:50;;;;;;;10.30;7.35;;;16.70;99.90;;;;;;5052596;28;20124;-84
2023/08/11 05:57:16;;;;;;;8.02;7.22;;;16.80;99.90;;;;;;5010003;28;20488;-84
2023/08/11 05:59:41;;;;;;;9.52;6.97;;;16.90;99.90;;;;;;5026768;28;20484;-84
2023/08/11 06:02:07;;;;;;;11.52;7.40;;;16.90;99.90;;;;;;5025899;28;20040;-84
2023/08/11 06:04:33;;;;;;;8.45;7.20;;;17.00;99.90;;;;;;5025761;28;20045;-84
2023/08/11 06:06:58;;;;;;;8.57;6.40;;;17.10;99.90;;;;;;5026581;28;20041;-84
2023/08/11 06:09:24;;;;;;;8.52;6.47;;;17.20;99.90;;;;;;5002640;28;20053;-84
2023/08/11 06:11:50;;;;;;;8.50;6.93;;;17.20;99.90;;;;;;5022010;28;20092;-84
2023/08/11 06:14:16;;;;;;;9.27;6.38;;;17.30;99.90;;;;;;5041470;28;20048;-83
2023/08/11 06:16:42;;;;;;;8.45;6.80;;;17.40;99.90;;;;;;5040128;28;20044;-84
2023/08/11 06:19:07;;;;;;;8.05;6.25;;;17.50;99.90;;;;;;5012114;28;20095;-84
2023/08/11 06:21:33;;;;;;;7.95;6.22;;;17.50;99.90;;;;;;5007088;28;20201;-84
2023/08/11 06:23:59;;;;;;;9.05;5.75;;;17.60;99.90;;;;;;5005245;28;20095;-84
2023/08/11 06:26:24;;;;;;;9.20;6.30;;;17.70;99.90;;;;;;5025189;28;20034;-83
2023/08/11 06:28:50;;;;;;;8.35;5.75;;;17.80;99.90;;;;;;5027065;28;20091;-84
2023/08/11 06:31:19;;;;;;;6.60;5.38;;;17.90;99.90;;;;;;5039783;28;20056;-84
2023/08/11 06:33:45;;;;;;;9.00;5.65;;;17.90;99.90;;;;;;5024295;28;20107;-83
2023/08/11 06:36:10;;;;;;;7.25;5.85;;;18.00;99.90;;;;;;5023087;28;20489;-84
2023/08/11 06:38:36;;;;;;;6.60;5.35;;;18.10;99.90;;;;;;5007281;28;20112;-84
2023/08/11 06:41:04;;;;;;;6.93;5.63;;;18.30;99.90;;;;;;5020124;28;20038;-84
2023/08/11 06:43:30;;;;;;;8.90;5.57;;;18.30;99.90;;;;;;5004609;28;20048;-84
2023/08/11 06:45:56;;;;;;;7.25;5.55;;;18.40;99.90;;;;;;5007893;28;20044;-84
2023/08/11 06:48:22;;;;;;;7.55;5.10;;;18.40;99.90;;;;;;5022760;28;20037;-84
2023/08/11 06:50:47;;;;;;;10.77;5.88;;;18.50;99.90;;;;;;5019582;28;20095;-84
2023/08/11 06:53:13;;;;;;;6.82;5.28;;;18.60;99.90;;;;;;5032278;28;20134;-84
2023/08/11 06:55:39;;;;;;;6.28;4.97;;;18.70;99.90;;;;;;5003055;28;20457;-83
2023/08/11 06:58:05;;;;;;;7.75;5.40;;;18.70;99.90;;;;;;5022919;28;20053;-84
2023/08/11 07:00:30;;;;;;;7.88;5.47;;;18.80;99.90;;;;;;5018774;28;20117;-83
2023/08/11 07:02:56;;;;;;;9.07;5.78;;;18.90;99.90;;;;;;5033007;28;20096;-84
2023/08/11 07:05:22;;;;;;;7.05;5.65;;;19.00;99.90;;;;;;5018693;28;20052;-85
2023/08/11 07:07:47;;;;;;;6.53;4.95;;;19.00;99.90;;;;;;5007028;28;20705;-84
2023/08/11 07:10:13;;;;;;;7.13;4.50;;;19.10;99.90;;;;;;5037634;28;20527;-84
2023/08/11 07:12:39;;;;;;;8.30;4.65;;;19.30;99.90;;;;;;5023440;28;20105;-84
2023/08/11 07:15:05;;;;;;;6.13;4.63;;;19.40;99.90;;;;;;5024870;28;20033;-84
2023/08/11 07:17:30;;;;;;;6.80;4.15;;;19.50;99.90;;;;;;5043375;28;19925;-84
2023/08/11 07:19:56;;;;;;;7.55;4.28;;;19.60;99.90;;;;;;5010197;28;20460;-84
2023/08/11 07:22:22;;;;;;;6.18;4.35;;;19.60;99.90;;;;;;5008587;28;20053;-84
2023/08/11 07:24:48;;;;;;;5.88;4.60;;;19.70;99.90;;;;;;5010256;28;20034;-84
2023/08/11 07:27:13;;;;;;;5.55;4.35;;;19.80;99.90;;;;;;5019374;28;20047;-84
2023/08/11 07:29:39;;;;;;;6.18;4.30;;;19.90;99.90;;;;;;5013330;28;20654;-84
2023/08/11 07:32:05;;;;;;;7.45;4.32;;;20.00;99.90;;;;;;5024114;28;20160;-84
2023/08/11 07:34:30;;;;;;;5.03;4.18;;;20.00;99.90;;;;;;5035855;28;20110;-84
2023/08/11 07:36:56;;;;;;;4.97;4.18;;;20.10;99.90;;;;;;5012053;28;20037;-85
2023/08/11 07:39:22;;;;;;;5.00;4.07;;;20.30;99.90;;;;;;5030428;28;20041;-85
2023/08/11 07:41:48;;;;;;;4.80;4.30;;;20.40;99.90;;;;;;5058264;28;20037;-84
2023/08/11 07:44:15;;;;;;;5.47;3.95;;;20.40;99.90;;;;;;5025161;28;20055;-84
2023/08/11 07:46:41;;;;;;;6.18;4.75;;;20.60;99.90;;;;;;5008255;28;20481;-84
2023/08/11 07:49:07;;;;;;;8.80;4.03;;;20.60;99.90;;;;;;5023225;28;20053;-85
2023/08/11 07:51:32;;;;;;;4.25;3.80;;;20.60;99.90;;;;;;5028132;28;20132;-84
2023/08/11 07:53:58;;;;;;;5.57;4.00;;;20.80;99.90;;;;;;5010161;28;20045;-84
2023/08/11 07:56:23;;;;;;;13.43;4.45;;;20.90;99.90;;;;;;5024989;28;20052;-85
2023/08/11 07:58:49;;;;;;;6.80;4.20;;;20.90;99.90;;;;;;5056626;28;20026;-84
2023/08/11 08:01:15;;;;;;;5.28;3.50;;;20.90;99.90;;;;;;5012802;28;20029;-85
2023/08/11 08:03:40;;;;;;;5.63;3.83;;;21.00;99.90;;;;;;5008691;28;20026;-84
2023/08/11 08:06:06;;;;;;;5.20;3.47;;;21.20;99.90;;;;;;5022754;28;20033;-85
2023/08/11 08:08:35;;;;;;;5.90;3.80;;;21.30;99.90;;;;;;5028728;28;20041;-85
2023/08/11 08:11:01;;;;;;;4.82;3.50;;;21.30;99.90;;;;;;5028368;28;20411;-84
2023/08/11 08:13:28;;;;;;;6.00;4.07;;;21.40;99.90;;;;;;5009039;28;20050;-84
2023/08/11 08:15:54;;;;;;;4.85;3.70;;;21.30;99.90;;;;;;5031107;28;20453;-84
2023/08/11 08:18:20;;;;;;;4.68;3.85;;;21.60;99.90;;;;;;5030356;28;20037;-84
2023/08/11 08:20:47;;;;;;;6.32;4.25;;;21.60;99.90;;;;;;5011133;28;20025;-84
2023/08/11 08:23:12;;;;;;;4.75;3.60;;;21.70;99.90;;;;;;5026179;28;20174;-84
2023/08/11 08:25:39;;;;;;;6.32;3.58;;;21.80;99.90;;;;;;5021165;28;20041;-84
2023/08/11 08:28:05;;;;;;;3.65;3.13;;;22.00;99.90;;;;;;5008325;28;20554;-84
2023/08/11 08:30:31;;;;;;;5.53;4.10;;;22.10;99.90;;;;;;5047369;28;20440;-84
2023/08/11 08:32:57;;;;;;;5.70;3.63;;;22.10;99.90;;;;;;5045991;28;20408;-84
2023/08/11 08:35:23;;;;;;;6.50;3.60;;;22.30;99.90;;;;;;5028346;28;20091;-84
2023/08/11 08:37:49;;;;;;;7.55;3.97;;;22.40;99.90;;;;;;5030119;28;20073;-84
2023/08/11 08:40:15;;;;;;;5.47;3.63;;;22.40;99.90;;;;;;5002963;28;20083;-85
2023/08/11 08:43:18;;;;;;;5.88;3.47;;;22.60;99.90;;;;;;5027652;28;20409;-85
2023/08/11 08:45:44;;;;;;;5.32;3.88;;;22.70;99.90;;;;;;5023480;28;20050;-84
2023/08/11 08:48:21;;;;;;;7.30;3.40;;;22.80;99.90;;;;;;5017429;28;20045;-84
2023/08/11 08:50:47;;;;;;;7.80;3.25;;;22.90;99.90;;;;;;5006603;28;20041;-84
2023/08/11 08:53:13;;;;;;;4.63;3.50;;;23.00;99.90;;;;;;5022697;28;20052;-85
2023/08/11 08:55:40;;;;;;;4.97;3.70;;;23.10;99.90;;;;;;5024988;28;20374;-84
2023/08/11 08:58:09;;;;;;;5.07;3.20;;;23.20;99.90;;;;;;5009321;28;20812;-85
2023/08/11 09:00:35;;;;;;;4.47;2.83;;;23.20;99.90;;;;;;5024481;28;20091;-84
2023/08/11 09:03:03;;;;;;;4.38;3.45;;;23.20;99.90;;;;;;5006471;28;20033;-85
2023/08/11 09:05:29;;;;;;;3.95;2.80;;;23.30;99.90;;;;;;5023385;28;20393;-84
2023/08/11 09:07:54;;;;;;;6.40;3.28;;;23.40;99.90;;;;;;5021077;28;20120;-84
2023/08/11 09:10:25;;;;;;;4.70;3.20;;;23.50;99.90;;;;;;5028357;28;20124;-85
2023/08/11 09:12:51;;;;;;;3.78;2.50;;;23.50;99.90;;;;;;5025463;28;20041;-84
2023/08/11 09:15:18;;;;;;;4.93;2.83;;;23.60;99.90;;;;;;5015230;28;20103;-84
2023/08/11 09:17:46;;;;;;;5.80;2.50;;;23.70;99.90;;;;;;5012653;28;20033;-85
2023/08/11 09:20:17;;;;;;;9.52;3.08;;;23.90;99.90;;;;;;5035177;28;20389;-85
2023/08/11 09:22:43;;;;;;;3.58;2.75;;;24.00;99.90;;;;;;5028559;28;20056;-84
2023/08/11 09:25:10;;;;;;;4.82;2.78;;;24.10;99.90;;;;;;5049455;28;20037;-84
2023/08/11 09:27:36;;;;;;;5.07;2.80;;;24.30;99.90;;;;;;5013529;28;20381;-85
2023/08/11 09:30:03;;;;;;;4.90;2.67;;;24.20;99.90;;;;;;5042666;28;20065;-85
2023/08/11 09:32:32;;;;;;;4.07;2.70;;;24.20;99.90;;;;;;5029089;28;20117;-85
2023/08/11 09:35:08;;;;;;;4.78;2.67;;;24.20;99.90;;;;;;5024552;28;20522;-85
2023/08/11 09:37:34;;;;;;;4.28;2.80;;;24.50;99.90;;;;;;5026162;28;20051;-85
2023/08/11 09:40:04;;;;;;;4.13;2.80;;;24.60;99.90;;;;;;5012322;28;20447;-84
2023/08/11 09:42:31;;;;;;;5.15;2.90;;;24.60;99.90;;;;;;5025816;28;20496;-85
2023/08/11 09:44:57;;;;;;;3.53;2.65;;;24.70;99.90;;;;;;5013600;28;20037;-84
2023/08/11 09:47:22;;;;;;;5.10;2.83;;;24.80;99.90;;;;;;5014809;28;20743;-85
2023/08/11 09:49:48;;;;;;;4.45;2.83;;;24.90;99.90;;;;;;5006854;28;20299;-85
2023/08/11 09:52:18;;;;;;;3.97;2.88;;;25.10;99.90;;;;;;5027294;28;20045;-84
2023/08/11 09:54:48;;;;;;;6.25;3.00;;;25.10;99.90;;;;;;5025232;28;20033;-84
2023/08/11 09:57:14;;;;;;;4.90;2.70;;;25.30;99.90;;;;;;5035177;28;20196;-85
2023/08/11 09:59:41;;;;;;;2.92;2.60;;;25.30;99.90;;;;;;5027096;28;20477;-85
2023/08/11 10:02:11;;;;;;;4.47;2.90;;;25.30;99.90;;;;;;5030702;28;20041;-85
2023/08/11 10:04:44;;;;;;;3.28;2.55;;;25.40;99.90;;;;;;5030051;28;20459;-85
2023/08/11 10:07:13;;;;;;;4.57;2.53;;;25.60;99.90;;;;;;5028319;28;20042;-84
2023/08/11 10:09:41;;;;;;;4.75;2.67;;;25.70;99.90;;;;;;5030073;28;20049;-84
2023/08/11 10:12:09;;;;;;;3.83;2.85;;;25.90;99.90;;;;;;5025504;28;20038;-85
2023/08/11 10:14:36;;;;;;;3.88;2.97;;;26.00;99.90;;;;;;5003840;28;20030;-84
2023/08/11 10:17:06;;;;;;;3.17;2.47;;;26.00;99.90;;;;;;5045766;28;20567;-85
2023/08/11 10:19:32;;;;;;;4.68;2.40;;;26.10;99.90;;;;;;5038952;28;20065;-84
2023/08/11 10:21:58;;;;;;;4.53;2.50;;;26.30;99.90;;;;;;5024234;28;20021;-85
2023/08/11 10:24:25;;;;;;;4.60;2.40;;;26.40;99.90;;;;;;5031141;28;20048;-85
2023/08/11 10:26:51;;;;;;;2.80;2.30;;;26.60;99.90;;;;;;5013191;28;20135;-85
2023/08/11 10:29:18;;;;;;;3.92;2.45;;;26.80;99.90;;;;;;5051736;28;20631;-84
2023/08/11 10:31:57;;;;;;;3.65;2.63;;;26.90;99.90;;;;;;5013588;28;20090;-84
2023/08/11 10:34:26;;;;;;;4.82;2.90;;;27.10;99.90;;;;;;5012504;28;20048;-84
2023/08/11 10:36:57;;;;;;;3.38;2.50;;;27.10;99.90;;;;;;5029558;28;20815;-85
2023/08/11 10:39:23;;;;;;;3.95;2.60;;;26.80;99.90;;;;;;5005642;28;20245;-84
2023/08/11 10:41:50;;;;;;;2.83;2.28;;;26.80;99.90;;;;;;5004809;28;20107;-85
2023/08/11 10:44:26;;;;;;;4.03;2.35;;;26.80;99.90;;;;;;5009476;28;20135;-85
2023/08/11 10:46:51;;;;;;;3.75;2.50;;;26.80;99.90;;;;;;5007020;28;20057;-84
2023/08/11 10:49:17;;;;;;;2.92;2.33;;;27.10;99.90;;;;;;5020445;28;20076;-84
2023/08/11 10:51:46;;;;;;;4.28;2.40;;;27.10;99.90;;;;;;5024950;28;20054;-84
2023/08/11 10:54:22;;;;;;;5.05;2.53;;;27.20;99.90;;;;;;5001848;28;20271;-84
2023/08/11 10:56:51;;;;;;;6.50;2.45;;;27.10;99.90;;;;;;5007700;28;20060;-84
2023/08/11 10:59:29;;;;;;;4.32;2.67;;;27.50;99.90;;;;;;5026699;28;20044;-84
2023/08/11 11:01:56;;;;;;;3.85;2.20;;;27.40;99.90;;;;;;5046280;28;20140;-84
2023/08/11 11:04:26;;;;;;;3.90;2.42;;;27.70;99.90;;;;;;5022453;28;20036;-84
2023/08/11 11:06:52;;;;;;;2.67;2.17;;;27.50;99.90;;;;;;5022543;28;20499;-84
2023/08/11 11:09:21;;;;;;;5.50;2.38;;;27.70;99.90;;;;;;5002298;28;20043;-84
2023/08/11 11:11:48;;;;;;;4.55;2.35;;;27.80;99.90;;;;;;5029987;28;20367;-84
2023/08/11 11:14:14;;;;;;;4.22;2.38;;;28.00;99.90;;;;;;5009902;28;20072;-84
2023/08/11 11:16:40;;;;;;;5.95;2.55;;;27.90;99.90;;;;;;5052115;28;20473;-84
2023/08/11 11:19:07;;;;;;;3.58;2.30;;;28.10;99.90;;;;;;5023382;28;20514;-83
2023/08/11 11:21:34;;;;;;;3.40;2.30;;;28.30;99.90;;;;;;5049377;28;20042;-84
2023/08/11 11:24:03;;;;;;;5.45;2.67;;;28.60;99.90;;;;;;5023988;28;20052;-83
2023/08/11 11:26:30;;;;;;;3.50;2.20;;;28.80;99.90;;;;;;5014299;28;20050;-84
2023/08/11 11:29:00;;;;;;;5.00;2.50;;;28.90;99.90;;;;;;5032868;28;20120;-83
2023/08/11 11:31:28;;;;;;;6.30;2.85;;;28.60;99.90;;;;;;5041385;28;20152;-84
2023/08/11 11:33:55;;;;;;;3.88;2.28;;;28.40;99.90;;;;;;5030776;28;20044;-84
2023/08/11 11:36:23;;;;;;;2.60;2.40;;;28.20;99.90;;;;;;5012018;28;20037;-84
2023/08/11 11:38:50;;;;;;;2.80;2.15;;;28.00;99.90;;;;;;5025652;28;20033;-84
2023/08/11 11:41:20;;;;;;;3.38;2.17;;;27.90;99.90;;;;;;5028019;28;20050;-84
2023/08/11 11:43:48;;;;;;;7.20;2.58;;;27.80;99.90;;;;;;5006709;28;20073;-84
2023/08/11 11:46:15;;;;;;;6.90;2.67;;;28.10;99.90;;;;;;5046467;28;20512;-83
2023/08/11 11:48:52;;;;;;;2.92;2.15;;;28.40;99.90;;;;;;5045153;28;20037;-83
2023/08/11 11:51:24;;;;;;;3.63;2.13;;;28.30;99.90;;;;;;5030176;28;20514;-83
2023/08/11 11:53:53;;;;;;;4.43;2.25;;;28.20;99.90;;;;;;5044315;28;20033;-83
2023/08/11 11:56:20;;;;;;;5.32;2.50;;;28.30;99.90;;;;;;5010933;28;20087;-83
2023/08/11 11:58:48;;;;;;;4.35;2.38;;;28.20;99.90;;;;;;5019789;28;20041;-83
2023/08/11 12:01:26;;;;;;;5.78;2.90;;;28.10;99.90;;;;;;5025235;28;20033;-83
2023/08/11 12:03:57;;;;;;;5.22;2.67;;;28.10;99.90;;;;;;5025124;28;20036;-84
2023/08/11 12:06:23;;;;;;;14.88;2.95;;;28.20;99.90;;;;;;5026750;28;20049;-83
2023/08/11 12:08:51;;;;;;;3.38;2.30;;;28.50;99.90;;;;;;5022590;28;20059;-84
2023/08/11 12:11:25;;;;;;;2.72;2.08;;;28.80;99.90;;;;;;5011095;28;20053;-84
2023/08/11 12:13:51;;;;;;;2.75;2.38;;;29.00;99.90;;;;;;5025479;28;20445;-84
2023/08/11 12:16:17;;;;;;;19.80;3.22;;;29.50;99.90;;;;;;5010141;28;20046;-83
2023/08/11 12:18:43;;;;;;;5.03;2.80;;;29.40;99.90;;;;;;5011529;28;20033;-83
2023/08/11 12:21:10;;;;;;;4.05;2.53;;;29.50;99.90;;;;;;5022156;28;20494;-83
2023/08/11 12:23:36;;;;;;;5.75;2.60;;;29.10;99.90;;;;;;5022908;28;20095;-83
2023/08/11 12:26:03;;;;;;;3.80;2.20;;;29.50;99.90;;;;;;5009640;28;20033;-82
2023/08/11 12:28:28;;;;;;;5.55;2.30;;;29.50;99.90;;;;;;5026698;28;20049;-83
2023/08/11 12:30:54;;;;;;;7.70;2.50;;;29.70;99.90;;;;;;5027947;28;20041;-83
2023/08/11 12:33:23;;;;;;;3.20;2.30;;;30.10;99.90;;;;;;5006230;28;20044;-83
2023/08/11 12:35:49;;;;;;;3.75;2.30;;;30.30;99.90;;;;;;5025832;28;20308;-83
2023/08/11 12:38:20;;;;;;;4.38;2.60;;;30.40;99.90;;;;;;5026603;28;20091;-83
2023/08/11 12:40:47;;;;;;;3.95;2.00;;;29.70;99.90;;;;;;4999889;28;20041;-83